createdAt,value
2022-11-12T00:00:35.518Z,11.10
2022-11-12T00:03:21.716Z,11.13
2022-11-12T00:06:11.298Z,11.16
2022-11-12T00:08:56.430Z,11.17
2022-11-12T00:11:41.836Z,11.17
2022-11-12T00:14:28.494Z,11.17
2022-11-12T00:17:13.721Z,11.17
2022-11-12T00:19:58.777Z,11.17
2022-11-12T00:22:44.008Z,11.18
2022-11-12T00:25:29.620Z,11.18
2022-11-12T00:28:14.405Z,11.18
2022-11-12T00:30:59.340Z,11.19
2022-11-12T00:33:44.744Z,11.18
2022-11-12T00:36:30.509Z,11.16
2022-11-12T00:39:16.467Z,11.14
2022-11-12T00:42:01.455Z,11.12
2022-11-12T00:44:51.167Z,11.09
2022-11-12T00:47:36.245Z,11.09
2022-11-12T00:50:21.477Z,11.09
2022-11-12T00:53:06.736Z,11.08
2022-11-12T00:56:11.335Z,11.00
2022-11-12T00:58:57.803Z,10.94
2022-11-12T01:01:43.130Z,10.86
2022-11-12T01:04:29.457Z,10.81
2022-11-12T01:07:15.992Z,10.77
2022-11-12T01:10:01.203Z,10.73
2022-11-12T01:12:47.781Z,10.71
2022-11-12T01:15:32.731Z,10.70
2022-11-12T01:18:18.080Z,10.69
2022-11-12T01:21:04.646Z,10.68
2022-11-12T01:23:50.063Z,10.68
2022-11-12T01:26:35.421Z,10.67
2022-11-12T01:29:20.572Z,10.65
2022-11-12T01:32:05.816Z,10.64
2022-11-12T01:34:54.873Z,10.64
2022-11-12T01:37:40.217Z,10.64
2022-11-12T01:40:25.655Z,10.63
2022-11-12T01:43:14.067Z,10.62
2022-11-12T01:46:02.380Z,10.58
2022-11-12T01:48:55.672Z,10.53
2022-11-12T01:51:44.129Z,10.46
2022-11-12T01:54:32.521Z,10.37
2022-11-12T01:57:29.498Z,10.30
2022-11-12T02:00:17.764Z,10.27
2022-11-12T02:03:08.461Z,10.27
2022-11-12T02:06:04.773Z,10.27
2022-11-12T02:08:50.239Z,10.26
2022-11-12T02:11:35.520Z,10.28
2022-11-12T02:14:25.337Z,10.18
2022-11-12T02:17:10.349Z,10.12
2022-11-12T02:19:59.641Z,10.06
2022-11-12T02:22:44.969Z,10.02
2022-11-12T02:25:35.541Z,9.97
2022-11-12T02:28:21.393Z,9.90
2022-11-12T02:31:06.343Z,9.85
2022-11-12T02:33:51.899Z,9.82
2022-11-12T02:36:38.722Z,9.78
2022-11-12T02:39:24.014Z,9.68
2022-11-12T02:42:09.405Z,9.64
2022-11-12T02:44:54.331Z,9.62
2022-11-12T02:47:39.828Z,9.62
2022-11-12T02:50:25.122Z,9.61
2022-11-12T02:53:10.173Z,9.62
2022-11-12T02:55:56.357Z,9.61
2022-11-12T02:58:41.209Z,9.62
2022-11-12T03:01:26.763Z,9.63
2022-11-12T03:04:11.803Z,9.65
2022-11-12T03:06:56.847Z,9.67
2022-11-12T03:09:42.233Z,9.67
2022-11-12T03:12:27.064Z,9.61
2022-11-12T03:15:17.875Z,9.50
2022-11-12T03:18:03.254Z,9.44
2022-11-12T03:20:51.795Z,9.41
2022-11-12T03:23:36.958Z,9.43
2022-11-12T03:26:23.541Z,9.45
2022-11-12T03:29:08.531Z,9.47
2022-11-12T03:31:53.814Z,9.48
2022-11-12T03:34:39.527Z,9.48
2022-11-12T03:37:24.752Z,9.49
2022-11-12T03:40:10.061Z,9.48
2022-11-12T03:42:55.629Z,9.44
2022-11-12T03:45:41.284Z,9.40
2022-11-12T03:48:26.499Z,9.44
2022-11-12T03:51:16.208Z,9.43
2022-11-12T03:54:01.246Z,9.45
2022-11-12T03:56:47.386Z,9.41
2022-11-12T03:59:32.801Z,9.38
2022-11-12T04:02:17.843Z,9.35
2022-11-12T04:05:26.986Z,9.30
2022-11-12T04:08:34.986Z,9.26
2022-11-12T04:11:21.052Z,9.23
2022-11-12T04:14:06.116Z,9.23
2022-11-12T04:17:10.865Z,9.26
2022-11-12T04:20:14.593Z,9.24
2022-11-12T04:22:59.867Z,9.25
2022-11-12T04:26:04.513Z,9.27
2022-11-12T04:29:08.470Z,9.28
2022-11-12T04:31:53.286Z,9.29
2022-11-12T04:34:42.989Z,9.27
2022-11-12T04:37:44.223Z,9.29
2022-11-12T04:40:48.215Z,9.30
2022-11-12T04:43:52.226Z,9.30
2022-11-12T04:46:37.514Z,9.27
2022-11-12T04:49:22.441Z,9.26
2022-11-12T04:52:07.488Z,9.27
2022-11-12T04:54:54.984Z,9.26
2022-11-12T04:57:40.200Z,9.26
2022-11-12T05:00:25.164Z,9.23
2022-11-12T05:03:10.928Z,9.20
2022-11-12T05:06:03.271Z,9.16
2022-11-12T05:08:48.469Z,9.17
2022-11-12T05:11:33.654Z,9.14
2022-11-12T05:14:24.356Z,9.15
2022-11-12T05:17:09.510Z,9.14
2022-11-12T05:19:54.746Z,9.10
2022-11-12T05:22:50.448Z,9.04
2022-11-12T05:25:44.772Z,9.05
2022-11-12T05:28:29.762Z,9.04
2022-11-12T05:31:14.673Z,9.06
2022-11-12T05:34:00.116Z,9.07
2022-11-12T05:36:46.314Z,9.06
2022-11-12T05:39:31.524Z,9.04
2022-11-12T05:42:16.987Z,9.04
2022-11-12T05:45:03.546Z,9.06
2022-11-12T05:47:48.616Z,9.08
2022-11-12T05:50:45.193Z,9.10
2022-11-12T05:53:38.532Z,9.12
2022-11-12T05:56:24.415Z,9.14
2022-11-12T05:59:12.556Z,9.16
2022-11-12T06:01:58.136Z,9.17
2022-11-12T06:04:44.685Z,9.18
2022-11-12T06:07:29.736Z,9.18
2022-11-12T06:10:20.268Z,9.20
2022-11-12T06:13:06.390Z,9.19
2022-11-12T06:15:52.904Z,9.18
2022-11-12T06:18:38.462Z,9.18
2022-11-12T06:21:24.160Z,9.16
2022-11-12T06:24:09.571Z,9.15
2022-11-12T06:26:56.041Z,9.12
2022-11-12T06:29:40.875Z,9.09
2022-11-12T06:32:26.176Z,9.08
2022-11-12T06:35:13.633Z,9.05
2022-11-12T06:37:58.427Z,9.03
2022-11-12T06:40:43.460Z,9.01
2022-11-12T06:43:30.417Z,8.99
2022-11-12T06:46:17.227Z,8.95
2022-11-12T06:49:02.489Z,8.91
2022-11-12T06:51:50.410Z,8.86
2022-11-12T06:54:37.091Z,8.81
2022-11-12T06:57:22.267Z,8.75
2022-11-12T07:00:09.578Z,8.69
2022-11-12T07:02:54.672Z,8.67
2022-11-12T07:05:41.143Z,8.67
2022-11-12T07:08:26.586Z,8.67
2022-11-12T07:11:12.623Z,8.67
2022-11-12T07:13:57.649Z,8.70
2022-11-12T07:16:42.646Z,8.73
2022-11-12T07:19:27.779Z,8.75
2022-11-12T07:22:12.892Z,8.75
2022-11-12T07:25:00.153Z,8.72
2022-11-12T07:27:45.179Z,8.67
2022-11-12T07:30:30.213Z,8.62
2022-11-12T07:33:15.350Z,8.56
2022-11-12T07:36:08.790Z,8.53
2022-11-12T07:38:54.719Z,8.50
2022-11-12T07:41:39.979Z,8.52
2022-11-12T07:44:29.672Z,8.57
2022-11-12T07:47:15.034Z,8.64
2022-11-12T07:50:00.373Z,8.72
2022-11-12T07:52:45.435Z,8.84
2022-11-12T07:55:31.770Z,8.93
2022-11-12T07:58:16.812Z,9.00
2022-11-12T08:01:10.006Z,9.07
2022-11-12T08:03:55.187Z,9.12
2022-11-12T08:06:40.373Z,9.18
2022-11-12T08:09:25.451Z,9.21
2022-11-12T08:12:10.274Z,9.27
2022-11-12T08:14:56.177Z,9.33
2022-11-12T08:17:41.278Z,9.39
2022-11-12T08:20:27.074Z,9.46
2022-11-12T08:23:12.154Z,9.53
2022-11-12T08:25:59.436Z,9.59
2022-11-12T08:28:45.222Z,9.67
2022-11-12T08:31:30.182Z,9.74
2022-11-12T08:34:25.913Z,9.86
2022-11-12T08:37:11.033Z,9.98
2022-11-12T08:39:55.992Z,10.12
2022-11-12T08:42:40.937Z,10.27
2022-11-12T08:45:29.411Z,10.46
2022-11-12T08:48:15.706Z,10.65
2022-11-12T08:51:02.445Z,10.85
2022-11-12T08:53:47.688Z,11.05
2022-11-12T08:56:34.239Z,11.24
2022-11-12T08:59:19.369Z,11.44
2022-11-12T09:02:04.249Z,11.65
2022-11-12T09:04:51.121Z,11.86
2022-11-12T09:07:49.453Z,12.06
2022-11-12T09:10:36.446Z,12.29
2022-11-12T09:13:21.407Z,12.44
2022-11-12T09:16:09.597Z,12.62
2022-11-12T09:18:54.832Z,12.77
2022-11-12T09:21:39.816Z,12.89
2022-11-12T09:24:28.180Z,13.05
2022-11-12T09:27:13.587Z,13.20
2022-11-12T09:29:58.765Z,13.37
2022-11-12T09:32:43.786Z,13.58
2022-11-12T09:35:31.982Z,13.78
2022-11-12T09:38:19.340Z,13.95
2022-11-12T09:41:16.813Z,14.13
2022-11-12T09:44:25.414Z,14.28
2022-11-12T09:47:27.647Z,14.45
2022-11-12T09:50:25.764Z,14.61
2022-11-12T09:53:22.848Z,14.80
2022-11-12T09:56:12.630Z,14.98
2022-11-12T09:58:58.040Z,15.10
2022-11-12T10:02:11.227Z,15.22
2022-11-12T10:05:23.256Z,15.30
2022-11-12T10:08:29.020Z,15.37
2022-11-12T10:12:10.471Z,15.49
2022-11-12T10:15:37.754Z,15.65
2022-11-12T10:18:48.036Z,15.81
2022-11-12T10:21:46.578Z,15.96
2022-11-12T10:24:39.914Z,16.11
2022-11-12T10:27:34.543Z,16.26
2022-11-12T10:30:22.029Z,16.38
2022-11-12T10:33:14.054Z,16.47
2022-11-12T10:36:27.268Z,16.51
2022-11-12T10:39:51.099Z,16.60
2022-11-12T10:42:56.606Z,16.69
2022-11-12T10:45:43.548Z,16.76
2022-11-12T10:48:34.194Z,16.80
2022-11-12T10:51:26.812Z,16.87
2022-11-12T10:54:38.712Z,16.93
2022-11-12T10:57:25.909Z,17.03
2022-11-12T11:00:14.483Z,17.08
2022-11-12T11:03:03.576Z,17.14
2022-11-12T11:05:48.821Z,17.20
2022-11-12T11:08:44.537Z,17.27
2022-11-12T11:11:31.381Z,17.35
2022-11-12T11:14:19.858Z,17.43
2022-11-12T11:17:09.344Z,17.52
2022-11-12T11:19:55.250Z,17.61
2022-11-12T11:22:54.047Z,17.68
2022-11-12T11:25:43.142Z,17.73
2022-11-12T11:28:38.871Z,17.81
2022-11-12T11:31:37.660Z,17.94
2022-11-12T11:34:24.092Z,18.06
2022-11-12T11:37:24.281Z,18.16
2022-11-12T11:40:30.073Z,18.29
2022-11-12T11:43:26.738Z,18.40
2022-11-12T11:46:33.271Z,18.50
2022-11-12T11:49:18.132Z,18.59
2022-11-12T11:52:05.977Z,18.70
2022-11-12T11:55:22.021Z,18.78
2022-11-12T11:58:38.125Z,18.83
2022-11-12T12:01:34.993Z,18.84
2022-11-12T12:04:37.176Z,18.87
2022-11-12T12:07:45.003Z,18.92
2022-11-12T12:11:01.245Z,19.02
2022-11-12T12:13:53.296Z,19.11
2022-11-12T12:16:56.093Z,19.19
2022-11-12T12:20:13.853Z,19.27
2022-11-12T12:23:33.574Z,19.35
2022-11-12T12:26:24.257Z,19.43
2022-11-12T12:29:18.474Z,19.47
2022-11-12T12:32:12.540Z,19.51
2022-11-12T12:35:16.714Z,19.57
2022-11-12T12:38:15.894Z,19.64
2022-11-12T12:41:19.692Z,19.72
2022-11-12T12:44:08.688Z,19.79
2022-11-12T12:46:58.857Z,19.85
2022-11-12T12:49:46.434Z,19.93
2022-11-12T12:53:00.510Z,20.03
2022-11-12T12:55:51.134Z,20.20
2022-11-12T12:58:45.513Z,20.32
2022-11-12T13:01:34.665Z,20.40
2022-11-12T13:04:52.491Z,20.40
2022-11-12T13:07:44.527Z,20.41
2022-11-12T13:10:41.884Z,20.39
2022-11-12T13:13:32.079Z,20.38
2022-11-12T13:16:52.118Z,20.37
2022-11-12T13:19:39.112Z,20.35
2022-11-12T13:22:26.578Z,20.34
2022-11-12T13:25:14.265Z,20.30
2022-11-12T13:28:02.409Z,20.21
2022-11-12T13:30:47.301Z,20.17
2022-11-12T13:33:33.475Z,20.13
2022-11-12T13:36:29.285Z,20.09
2022-11-12T13:39:18.220Z,20.09
2022-11-12T13:42:31.721Z,20.05
2022-11-12T13:45:19.407Z,20.02
2022-11-12T13:48:13.780Z,19.99
2022-11-12T13:51:03.111Z,19.94
2022-11-12T13:53:48.570Z,19.90
2022-11-12T13:56:36.199Z,19.86
2022-11-12T13:59:24.664Z,19.84
2022-11-12T14:02:41.522Z,19.78
2022-11-12T14:05:33.744Z,19.74
2022-11-12T14:08:48.084Z,19.66
2022-11-12T14:11:52.320Z,19.58
2022-11-12T14:14:50.170Z,19.52
2022-11-12T14:17:38.214Z,19.47
2022-11-12T14:20:36.804Z,19.38
2022-11-12T14:23:25.197Z,19.32
2022-11-12T14:26:12.266Z,19.24
2022-11-12T14:28:57.411Z,19.15
2022-11-12T14:31:42.952Z,19.10
2022-11-12T14:34:33.028Z,19.02
2022-11-12T14:37:42.919Z,18.93
2022-11-12T14:40:31.807Z,18.86
2022-11-12T14:43:41.397Z,18.75
2022-11-12T14:46:43.926Z,18.66
2022-11-12T14:49:43.913Z,18.62
2022-11-12T14:52:35.833Z,18.59
2022-11-12T14:55:30.709Z,18.55
2022-11-12T14:58:17.399Z,18.49
2022-11-12T15:01:59.330Z,18.45
2022-11-12T15:04:38.205Z,18.38
2022-11-12T15:07:29.278Z,18.33
2022-11-12T15:10:33.583Z,18.23
2022-11-12T15:13:21.571Z,18.17
2022-11-12T15:16:09.535Z,18.08
2022-11-12T15:19:02.585Z,18.00
2022-11-12T15:21:51.517Z,17.92
2022-11-12T15:24:39.014Z,17.85
2022-11-12T15:27:37.636Z,17.76
2022-11-12T15:30:28.104Z,17.70
2022-11-12T15:33:13.641Z,17.61
2022-11-12T15:36:00.613Z,17.55
2022-11-12T15:38:51.287Z,17.47
2022-11-12T15:41:36.525Z,17.38
2022-11-12T15:44:25.385Z,17.30
2022-11-12T15:47:23.942Z,17.21
2022-11-12T15:50:19.823Z,17.12
2022-11-12T15:53:05.496Z,17.04
2022-11-12T15:55:54.970Z,16.89
2022-11-12T15:58:40.494Z,16.79
2022-11-12T16:01:25.674Z,16.71
2022-11-12T16:04:12.789Z,16.62
2022-11-12T16:06:58.063Z,16.53
2022-11-12T16:09:43.329Z,16.45
2022-11-12T16:12:29.429Z,16.37
2022-11-12T16:15:18.759Z,16.31
2022-11-12T16:18:03.755Z,16.25
2022-11-12T16:20:50.098Z,16.16
2022-11-12T16:23:36.809Z,16.08
2022-11-12T16:26:27.614Z,16.02
2022-11-12T16:29:14.053Z,15.99
2022-11-12T16:31:59.459Z,15.94
2022-11-12T16:34:49.154Z,15.86
2022-11-12T16:37:34.153Z,15.85
2022-11-12T16:40:22.136Z,15.83
2022-11-12T16:43:06.977Z,15.80
2022-11-12T16:45:56.281Z,15.78
2022-11-12T16:48:41.689Z,15.69
2022-11-12T16:51:27.021Z,15.64
2022-11-12T16:54:12.153Z,15.57
2022-11-12T16:56:57.261Z,15.51
2022-11-12T16:59:42.322Z,15.42
2022-11-12T17:02:27.499Z,15.33
2022-11-12T17:05:15.977Z,15.30
2022-11-12T17:08:01.227Z,15.29
2022-11-12T17:10:46.337Z,15.23
2022-11-12T17:13:31.296Z,15.21
2022-11-12T17:16:16.628Z,15.20
2022-11-12T17:19:02.129Z,15.16
2022-11-12T17:21:47.310Z,15.09
2022-11-12T17:24:32.772Z,15.02
2022-11-12T17:27:17.529Z,14.82
2022-11-12T17:30:03.391Z,14.60
2022-11-12T17:32:49.038Z,14.43
2022-11-12T17:35:34.897Z,14.26
2022-11-12T17:38:19.929Z,14.15
2022-11-12T17:41:06.108Z,14.05
2022-11-12T17:43:55.958Z,13.93
2022-11-12T17:46:41.769Z,13.85
2022-11-12T17:49:27.190Z,13.78
2022-11-12T17:52:12.371Z,13.71
2022-11-12T17:55:01.712Z,13.66
2022-11-12T17:57:48.701Z,13.60
2022-11-12T18:00:34.711Z,13.58
2022-11-12T18:03:19.624Z,13.58
2022-11-12T18:06:05.333Z,13.58
2022-11-12T18:09:16.584Z,13.57
2022-11-12T18:12:01.652Z,13.58
2022-11-12T18:14:47.813Z,13.56
2022-11-12T18:17:34.180Z,13.50
2022-11-12T18:20:19.787Z,13.44
2022-11-12T18:23:04.863Z,13.39
2022-11-12T18:25:50.016Z,13.33
2022-11-12T18:28:35.185Z,13.27
2022-11-12T18:31:21.473Z,13.24
2022-11-12T18:34:06.848Z,13.19
2022-11-12T18:36:52.742Z,13.13
2022-11-12T18:39:37.931Z,13.07
2022-11-12T18:42:22.832Z,13.03
2022-11-12T18:45:11.251Z,12.93
2022-11-12T18:47:56.623Z,12.89
2022-11-12T18:50:41.519Z,12.89
2022-11-12T18:53:28.603Z,12.91
2022-11-12T18:56:16.313Z,12.88
2022-11-12T18:59:01.153Z,12.88
2022-11-12T19:01:46.252Z,12.86
2022-11-12T19:04:32.048Z,12.85
2022-11-12T19:07:17.144Z,12.87
2022-11-12T19:10:14.722Z,12.88
2022-11-12T19:13:04.919Z,12.89
2022-11-12T19:15:52.397Z,12.88
2022-11-12T19:18:39.653Z,12.88
2022-11-12T19:21:26.132Z,12.87
2022-11-12T19:24:10.964Z,12.86
2022-11-12T19:27:03.699Z,12.83
2022-11-12T19:29:49.490Z,12.81
2022-11-12T19:32:34.427Z,12.78
2022-11-12T19:35:20.896Z,12.77
2022-11-12T19:38:05.781Z,12.69
2022-11-12T19:40:50.984Z,12.64
2022-11-12T19:43:36.205Z,12.58
2022-11-12T19:46:21.559Z,12.53
2022-11-12T19:49:06.763Z,12.50
2022-11-12T19:51:51.449Z,12.47
2022-11-12T19:54:36.603Z,12.44
2022-11-12T19:57:22.862Z,12.40
2022-11-12T20:00:08.939Z,12.38
2022-11-12T20:02:54.021Z,12.33
2022-11-12T20:05:42.629Z,12.33
2022-11-12T20:08:28.076Z,12.31
2022-11-12T20:11:14.388Z,12.30
2022-11-12T20:13:59.458Z,12.28
2022-11-12T20:17:04.862Z,12.28
2022-11-12T20:19:49.697Z,12.26
2022-11-12T20:22:34.816Z,12.26
2022-11-12T20:25:21.150Z,12.24
2022-11-12T20:28:06.630Z,12.23
2022-11-12T20:30:51.765Z,12.21
2022-11-12T20:33:42.064Z,12.20
2022-11-12T20:36:27.662Z,12.18
2022-11-12T20:39:12.723Z,12.21
2022-11-12T20:41:58.517Z,12.24
2022-11-12T20:44:43.633Z,12.24
2022-11-12T20:47:28.651Z,12.22
2022-11-12T20:50:13.759Z,12.16
2022-11-12T20:52:58.921Z,12.12
2022-11-12T20:55:45.700Z,12.06
2022-11-12T20:58:30.908Z,12.01
2022-11-12T21:01:18.836Z,11.94
2022-11-12T21:04:04.023Z,11.87
2022-11-12T21:06:50.166Z,11.85
2022-11-12T21:09:35.355Z,11.85
2022-11-12T21:12:20.440Z,11.83
2022-11-12T21:15:07.298Z,11.85
2022-11-12T21:17:52.522Z,11.87
2022-11-12T21:20:38.153Z,11.91
2022-11-12T21:23:23.673Z,11.96
2022-11-12T21:26:17.882Z,12.01
2022-11-12T21:29:04.567Z,12.05
2022-11-12T21:31:49.872Z,12.06
2022-11-12T21:34:36.568Z,12.07
2022-11-12T21:37:22.207Z,12.09
2022-11-12T21:40:08.004Z,12.10
2022-11-12T21:42:52.957Z,12.11
2022-11-12T21:45:44.719Z,12.13
2022-11-12T21:48:30.065Z,12.11
2022-11-12T21:51:19.604Z,12.11
2022-11-12T21:54:07.270Z,12.09
2022-11-12T21:56:52.564Z,12.06
2022-11-12T21:59:37.519Z,12.01
2022-11-12T22:02:22.625Z,11.95
2022-11-12T22:05:08.962Z,11.91
2022-11-12T22:07:54.132Z,11.87
2022-11-12T22:10:39.268Z,11.84
2022-11-12T22:13:27.847Z,11.84
2022-11-12T22:16:24.645Z,11.79
2022-11-12T22:19:11.198Z,11.76
2022-11-12T22:21:56.020Z,11.74
2022-11-12T22:24:42.558Z,11.69
2022-11-12T22:27:31.288Z,11.65
2022-11-12T22:30:16.563Z,11.63
2022-11-12T22:33:01.841Z,11.62
2022-11-12T22:35:48.587Z,11.63
2022-11-12T22:38:35.599Z,11.62
2022-11-12T22:41:23.701Z,11.59
2022-11-12T22:44:08.772Z,11.59
2022-11-12T22:46:54.541Z,11.61
2022-11-12T22:49:39.324Z,11.63
2022-11-12T22:52:24.198Z,11.66
2022-11-12T22:55:10.785Z,11.69
2022-11-12T22:57:55.653Z,11.70
2022-11-12T23:00:40.436Z,11.70
2022-11-12T23:03:25.428Z,11.68
2022-11-12T23:06:10.928Z,11.67
2022-11-12T23:08:57.244Z,11.64
2022-11-12T23:11:42.377Z,11.67
2022-11-12T23:14:30.505Z,11.66
2022-11-12T23:17:15.414Z,11.62
2022-11-12T23:20:00.480Z,11.59
2022-11-12T23:22:45.461Z,11.55
2022-11-12T23:25:34.113Z,11.53
2022-11-12T23:28:19.174Z,11.51
2022-11-12T23:31:06.561Z,11.52
2022-11-12T23:33:53.814Z,11.56
2022-11-12T23:36:39.175Z,11.60
2022-11-12T23:39:24.173Z,11.64
2022-11-12T23:42:08.932Z,11.70
2022-11-12T23:44:57.273Z,11.74
2022-11-12T23:47:42.552Z,11.80
2022-11-12T23:50:27.370Z,11.84
2022-11-12T23:53:12.660Z,11.87
2022-11-12T23:55:57.566Z,11.90
2022-11-12T23:58:43.039Z,11.91
